Time;durP1;ratioP1;P1;durP2;ratioP2;P2;SDS_P1;SDS_P2;PMS_P1;PMS_P2;Temp;Humidity;BMP_temperature;BMP_pressure;BME280_temperature;BME280_humidity;BME280_pressure;Samples;Min_cycle;Max_cycle;Signal;HPM_P1;HPM_P2
2022/07/20 00:03:38;;;;;;;7.57;4.60;;;;;;;;;;10058455;28;20106;-67
2022/07/20 00:13:52;;;;;;;8.55;4.07;;;;;;;;;;10074556;28;20043;-67
2022/07/20 00:18:48;;;;;;;6.88;3.78;;;;;;;;;;10074282;28;20059;-68
2022/07/20 00:23:46;;;;;;;9.80;4.68;;;;;;;;;;10043240;29;20058;-67
2022/07/20 00:28:42;;;;;;;9.65;4.13;;;;;;;;;;10073145;28;20070;-67
2022/07/20 00:33:39;;;;;;;7.25;4.13;;;;;;;;;;10040121;28;20063;-68
2022/07/20 00:38:35;;;;;;;7.15;4.20;;;;;;;;;;10057842;28;20471;-68
2022/07/20 00:43:50;;;;;;;7.90;4.28;;;;;;;;;;10039143;28;20051;-68
2022/07/20 00:48:46;;;;;;;7.60;4.32;;;;;;;;;;10039620;28;20074;-67
2022/07/20 00:53:44;;;;;;;7.38;3.75;;;;;;;;;;10035867;28;20100;-67
2022/07/20 00:58:40;;;;;;;8.18;4.43;;;;;;;;;;10034681;28;20072;-67
2022/07/20 01:03:37;;;;;;;6.28;3.65;;;;;;;;;;10039363;28;20078;-68
2022/07/20 01:08:33;;;;;;;7.90;4.10;;;;;;;;;;10072205;28;20051;-67
2022/07/20 01:13:30;;;;;;;8.52;4.35;;;;;;;;;;10051426;28;20539;-68
2022/07/20 01:18:26;;;;;;;7.78;3.78;;;;;;;;;;10076306;28;20051;-67
2022/07/20 01:23:24;;;;;;;6.00;3.67;;;;;;;;;;10057020;28;20513;-67
2022/07/20 01:28:20;;;;;;;7.50;4.20;;;;;;;;;;10079754;28;20059;-68
2022/07/20 01:33:17;;;;;;;7.78;4.45;;;;;;;;;;10055674;28;20048;-68
2022/07/20 01:38:13;;;;;;;7.75;3.92;;;;;;;;;;10079208;28;20055;-68
2022/07/20 01:43:10;;;;;;;12.05;4.32;;;;;;;;;;10079711;28;20067;-68
2022/07/20 01:48:06;;;;;;;6.82;4.28;;;;;;;;;;10061502;28;20276;-68
2022/07/20 01:53:02;;;;;;;8.50;4.00;;;;;;;;;;10040724;28;20051;-68
2022/07/20 01:57:59;;;;;;;6.53;4.35;;;;;;;;;;10048362;28;20063;-68
2022/07/20 02:02:55;;;;;;;6.10;3.55;;;;;;;;;;10040420;28;20047;-67
2022/07/20 02:07:51;;;;;;;9.27;4.47;;;;;;;;;;10076833;28;20055;-67
2022/07/20 02:12:47;;;;;;;8.70;4.88;;;;;;;;;;10069475;28;20135;-68
2022/07/20 02:17:44;;;;;;;7.05;4.07;;;;;;;;;;10075990;28;20079;-67
2022/07/20 02:22:40;;;;;;;7.05;3.78;;;;;;;;;;10069268;28;20090;-68
2022/07/20 02:27:36;;;;;;;6.55;4.00;;;;;;;;;;10074341;28;20094;-67
2022/07/20 02:32:33;;;;;;;7.40;4.50;;;;;;;;;;10058307;28;20107;-67
2022/07/20 02:37:29;;;;;;;7.10;4.35;;;;;;;;;;10074079;28;20047;-67
2022/07/20 02:42:25;;;;;;;7.30;4.25;;;;;;;;;;10052229;28;20126;-67
2022/07/20 02:47:21;;;;;;;7.38;3.80;;;;;;;;;;10072578;28;20545;-67
2022/07/20 02:52:18;;;;;;;6.68;3.63;;;;;;;;;;10048362;28;20076;-68
2022/07/20 02:57:14;;;;;;;8.77;4.82;;;;;;;;;;10064815;28;20044;-68
2022/07/20 03:02:10;;;;;;;7.75;4.43;;;;;;;;;;10038014;28;20102;-67
2022/07/20 03:07:06;;;;;;;6.82;4.68;;;;;;;;;;10051992;28;20056;-67
2022/07/20 03:12:03;;;;;;;8.43;4.75;;;;;;;;;;10037655;28;20079;-67
2022/07/20 03:16:59;;;;;;;7.82;4.43;;;;;;;;;;10040402;28;20048;-67
2022/07/20 03:21:55;;;;;;;7.00;4.10;;;;;;;;;;10038589;28;20086;-67
2022/07/20 03:26:52;;;;;;;8.93;4.18;;;;;;;;;;10067045;28;20784;-67
2022/07/20 03:31:48;;;;;;;6.93;3.90;;;;;;;;;;10063239;28;20060;-68
2022/07/20 03:36:45;;;;;;;9.88;5.05;;;;;;;;;;10065735;28;20055;-67
2022/07/20 03:41:41;;;;;;;6.93;4.30;;;;;;;;;;10060596;28;20071;-68
2022/07/20 03:46:38;;;;;;;9.77;4.53;;;;;;;;;;10064648;28;20130;-68
2022/07/20 03:51:37;;;;;;;6.93;4.22;;;;;;;;;;10052181;28;20509;-67
2022/07/20 03:56:39;;;;;;;7.80;4.43;;;;;;;;;;10062618;28;20074;-68
2022/07/20 04:01:36;;;;;;;7.10;4.27;;;;;;;;;;10075011;28;20129;-67
2022/07/20 04:06:33;;;;;;;7.53;4.50;;;;;;;;;;10074216;28;20501;-67
2022/07/20 04:11:29;;;;;;;7.93;4.05;;;;;;;;;;10038062;28;20134;-68
2022/07/20 04:16:26;;;;;;;7.43;4.40;;;;;;;;;;10064403;28;20171;-67
2022/07/20 04:21:22;;;;;;;7.55;4.30;;;;;;;;;;10074693;28;20051;-68
2022/07/20 04:26:18;;;;;;;7.68;4.78;;;;;;;;;;10072693;28;20528;-68
2022/07/20 04:31:14;;;;;;;8.63;5.22;;;;;;;;;;10035723;28;20278;-68
2022/07/20 04:36:11;;;;;;;7.88;4.68;;;;;;;;;;10041096;28;20052;-67
2022/07/20 04:41:07;;;;;;;13.88;5.07;;;;;;;;;;10035403;28;20082;-67
2022/07/20 04:46:04;;;;;;;8.23;4.53;;;;;;;;;;10063866;28;20047;-69
2022/07/20 04:51:00;;;;;;;7.75;4.45;;;;;;;;;;10067459;28;20127;-67
2022/07/20 04:55:56;;;;;;;9.98;4.75;;;;;;;;;;10065908;28;20859;-68
2022/07/20 05:00:53;;;;;;;9.23;5.10;;;;;;;;;;10081198;28;20069;-67
2022/07/20 05:05:49;;;;;;;8.65;4.82;;;;;;;;;;10081273;28;20134;-68
2022/07/20 05:10:46;;;;;;;7.20;4.30;;;;;;;;;;10064688;28;20074;-67
2022/07/20 05:15:42;;;;;;;7.80;4.45;;;;;;;;;;10063042;28;20047;-67
2022/07/20 05:20:38;;;;;;;10.55;6.25;;;;;;;;;;10054199;28;20688;-67
2022/07/20 05:25:38;;;;;;;9.95;5.20;;;;;;;;;;10057762;28;20043;-68
2022/07/20 05:30:35;;;;;;;11.05;5.32;;;;;;;;;;10041932;28;20043;-67
2022/07/20 05:35:31;;;;;;;10.00;5.30;;;;;;;;;;10052753;28;20044;-68
2022/07/20 05:40:27;;;;;;;8.07;4.60;;;;;;;;;;10040667;28;20039;-67
2022/07/20 05:45:24;;;;;;;10.30;4.03;;;;;;;;;;10059888;28;20126;-67
2022/07/20 05:50:20;;;;;;;6.90;4.15;;;;;;;;;;10080085;28;20134;-67
2022/07/20 05:55:17;;;;;;;8.05;4.15;;;;;;;;;;10071336;28;20091;-67
2022/07/20 06:00:13;;;;;;;10.85;4.65;;;;;;;;;;10079193;28;20490;-67
2022/07/20 06:05:09;;;;;;;10.73;4.07;;;;;;;;;;10056881;28;20051;-68
2022/07/20 06:10:06;;;;;;;8.98;4.38;;;;;;;;;;10071203;28;20454;-68
2022/07/20 06:15:03;;;;;;;7.95;4.85;;;;;;;;;;10070215;28;20125;-67
2022/07/20 06:20:01;;;;;;;6.97;3.75;;;;;;;;;;10067673;28;20134;-68
2022/07/20 06:24:57;;;;;;;10.57;4.20;;;;;;;;;;10055307;29;20110;-67
2022/07/20 06:29:53;;;;;;;6.35;3.22;;;;;;;;;;10056732;28;20067;-68
2022/07/20 06:34:50;;;;;;;7.10;3.80;;;;;;;;;;10053061;28;20134;-68
2022/07/20 06:39:46;;;;;;;6.95;3.63;;;;;;;;;;10049090;28;20510;-67
2022/07/20 06:44:43;;;;;;;11.27;3.83;;;;;;;;;;10051603;28;20058;-68
2022/07/20 06:49:40;;;;;;;9.02;3.38;;;;;;;;;;10049064;28;20075;-68
2022/07/20 06:54:36;;;;;;;6.63;3.55;;;;;;;;;;10050572;28;20441;-68
2022/07/20 06:59:32;;;;;;;8.25;3.30;;;;;;;;;;10042693;28;20075;-67
2022/07/20 07:04:29;;;;;;;6.38;3.50;;;;;;;;;;10064526;28;20054;-68
2022/07/20 07:09:25;;;;;;;8.05;3.78;;;;;;;;;;10041223;28;20086;-68
2022/07/20 07:14:25;;;;;;;9.38;3.58;;;;;;;;;;10047641;28;20134;-68
2022/07/20 07:19:21;;;;;;;7.07;3.40;;;;;;;;;;10075836;28;20138;-67
2022/07/20 07:24:18;;;;;;;7.90;3.70;;;;;;;;;;10060095;28;20052;-67
2022/07/20 07:29:14;;;;;;;9.85;3.72;;;;;;;;;;10075816;28;20043;-68
2022/07/20 07:34:11;;;;;;;9.38;3.42;;;;;;;;;;10051840;28;20046;-67
2022/07/20 07:39:07;;;;;;;9.43;3.97;;;;;;;;;;10075741;28;20530;-68
2022/07/20 07:44:03;;;;;;;9.15;3.58;;;;;;;;;;10048899;28;20051;-68
2022/07/20 07:49:00;;;;;;;6.85;3.35;;;;;;;;;;10071760;28;20051;-68
2022/07/20 07:53:56;;;;;;;6.72;3.22;;;;;;;;;;10043774;28;20039;-68
2022/07/20 07:58:53;;;;;;;5.88;3.10;;;;;;;;;;10070591;28;20071;-67
2022/07/20 08:04:09;;;;;;;9.77;3.33;;;;;;;;;;10045089;28;20133;-68
2022/07/20 08:09:05;;;;;;;7.93;3.42;;;;;;;;;;10067157;28;20490;-68
2022/07/20 08:14:02;;;;;;;14.75;3.42;;;;;;;;;;10043833;28;20117;-68
2022/07/20 08:18:59;;;;;;;7.55;3.78;;;;;;;;;;10061510;28;20155;-68
2022/07/20 08:23:55;;;;;;;9.32;3.58;;;;;;;;;;10043036;28;20106;-68
2022/07/20 08:28:52;;;;;;;6.28;3.28;;;;;;;;;;10051139;28;20071;-68
2022/07/20 08:33:49;;;;;;;6.03;3.10;;;;;;;;;;10049209;28;20609;-68
2022/07/20 08:38:46;;;;;;;5.95;3.67;;;;;;;;;;10042773;28;20514;-68
2022/07/20 08:43:42;;;;;;;7.35;3.42;;;;;;;;;;10045586;28;20059;-68
2022/07/20 08:48:41;;;;;;;11.10;4.10;;;;;;;;;;10042593;28;20047;-68
2022/07/20 08:53:37;;;;;;;8.60;3.53;;;;;;;;;;10043273;28;20074;-68
2022/07/20 08:58:44;;;;;;;7.85;3.72;;;;;;;;;;10042200;28;20138;-68
2022/07/20 09:03:41;;;;;;;6.47;3.70;;;;;;;;;;10047920;28;20086;-68
2022/07/20 09:08:57;;;;;;;7.15;3.38;;;;;;;;;;10080747;28;20110;-68
2022/07/20 09:13:53;;;;;;;8.15;3.63;;;;;;;;;;10064277;28;20062;-68
2022/07/20 09:18:52;;;;;;;6.28;3.55;;;;;;;;;;10079117;28;20580;-68
2022/07/20 09:23:52;;;;;;;9.45;3.60;;;;;;;;;;10047973;28;20536;-68
2022/07/20 09:28:50;;;;;;;8.67;3.47;;;;;;;;;;10061503;28;20458;-68
2022/07/20 09:33:48;;;;;;;8.85;3.88;;;;;;;;;;10047351;28;20497;-68
2022/07/20 09:38:45;;;;;;;5.72;3.78;;;;;;;;;;10049545;28;20143;-68
2022/07/20 09:43:41;;;;;;;10.90;3.58;;;;;;;;;;10046429;28;20101;-68
2022/07/20 09:48:39;;;;;;;5.78;3.30;;;;;;;;;;10043491;28;20102;-68
2022/07/20 09:53:35;;;;;;;8.07;3.60;;;;;;;;;;10046114;28;20480;-68
2022/07/20 09:58:34;;;;;;;9.07;3.83;;;;;;;;;;10079002;28;20055;-68
2022/07/20 10:03:30;;;;;;;7.95;4.32;;;;;;;;;;10077163;28;20629;-68
2022/07/20 10:08:27;;;;;;;5.72;3.10;;;;;;;;;;10077874;28;20043;-67
2022/07/20 10:13:23;;;;;;;5.40;3.00;;;;;;;;;;10067783;28;20562;-68
2022/07/20 10:18:19;;;;;;;7.50;3.45;;;;;;;;;;10078598;28;20059;-68
2022/07/20 10:23:25;;;;;;;8.52;4.53;;;;;;;;;;10065165;28;20055;-68
2022/07/20 10:28:24;;;;;;;6.75;3.53;;;;;;;;;;10077960;28;20043;-68
2022/07/20 10:33:21;;;;;;;6.65;3.50;;;;;;;;;;10046048;28;20044;-68
2022/07/20 10:38:19;;;;;;;8.43;3.88;;;;;;;;;;10065198;28;20083;-68
2022/07/20 10:43:15;;;;;;;5.63;3.33;;;;;;;;;;10040723;28;20052;-68
2022/07/20 10:48:11;;;;;;;5.72;3.95;;;;;;;;;;10061896;28;20510;-68
2022/07/20 10:53:11;;;;;;;5.53;2.60;;;;;;;;;;10038875;28;20114;-68
2022/07/20 10:58:09;;;;;;;5.10;2.95;;;;;;;;;;10052780;28;20052;-68
2022/07/20 11:03:27;;;;;;;8.13;2.95;;;;;;;;;;10038343;28;20051;-68
2022/07/20 11:08:23;;;;;;;4.80;2.90;;;;;;;;;;10038503;28;20044;-68
2022/07/20 11:13:19;;;;;;;6.25;2.92;;;;;;;;;;10040699;28;20079;-69
2022/07/20 11:18:17;;;;;;;4.90;2.60;;;;;;;;;;10076015;28;20437;-68
2022/07/20 11:23:14;;;;;;;5.43;2.78;;;;;;;;;;10061118;28;20118;-69
2022/07/20 11:28:11;;;;;;;7.90;2.47;;;;;;;;;;10075670;28;20192;-68
2022/07/20 11:33:08;;;;;;;6.05;3.35;;;;;;;;;;10061164;28;20048;-68
2022/07/20 11:38:04;;;;;;;4.55;2.20;;;;;;;;;;10075588;28;20047;-69
2022/07/20 11:43:11;;;;;;;5.75;2.72;;;;;;;;;;10057924;28;20667;-68
2022/07/20 11:48:17;;;;;;;4.28;2.35;;;;;;;;;;10035899;28;20094;-68
2022/07/20 11:53:40;;;;;;;8.30;3.22;;;;;;;;;;10075330;28;20047;-68
2022/07/20 11:58:37;;;;;;;5.82;3.20;;;;;;;;;;10062943;28;20542;-68
2022/07/20 12:03:39;;;;;;;7.63;2.60;;;;;;;;;;10040436;28;20082;-68
2022/07/20 12:08:36;;;;;;;5.53;2.72;;;;;;;;;;10056086;28;20082;-68
2022/07/20 12:13:42;;;;;;;6.78;2.53;;;;;;;;;;10040069;28;20040;-68
2022/07/20 12:18:42;;;;;;;7.25;3.30;;;;;;;;;;10054798;28;20082;-68
2022/07/20 12:23:38;;;;;;;9.25;3.30;;;;;;;;;;10040474;28;20494;-68
2022/07/20 12:28:37;;;;;;;5.45;2.72;;;;;;;;;;10055691;28;20473;-68
2022/07/20 12:34:07;;;;;;;4.65;2.20;;;;;;;;;;10042520;28;20122;-68
2022/07/20 12:39:06;;;;;;;6.93;2.60;;;;;;;;;;10039580;28;20072;-69
2022/07/20 12:44:21;;;;;;;5.78;2.75;;;;;;;;;;10043288;28;20058;-68
2022/07/20 12:49:18;;;;;;;5.10;2.60;;;;;;;;;;10073765;28;20044;-68
2022/07/20 12:54:14;;;;;;;4.63;2.47;;;;;;;;;;10060300;28;20489;-68
2022/07/20 12:59:31;;;;;;;4.43;2.47;;;;;;;;;;10073291;28;20138;-69
2022/07/20 13:04:27;;;;;;;7.13;2.60;;;;;;;;;;10048458;28;20070;-68
2022/07/20 13:09:30;;;;;;;5.13;2.70;;;;;;;;;;10073168;28;20051;-68
2022/07/20 13:14:26;;;;;;;6.90;2.30;;;;;;;;;;10070009;28;20486;-68
2022/07/20 13:19:23;;;;;;;6.55;2.60;;;;;;;;;;10080495;28;20134;-68
2022/07/20 13:24:19;;;;;;;6.85;2.70;;;;;;;;;;10058750;28;20075;-68
2022/07/20 13:29:15;;;;;;;5.82;2.38;;;;;;;;;;10067473;28;20051;-68
2022/07/20 13:34:12;;;;;;;7.05;2.72;;;;;;;;;;10050450;28;20212;-69
2022/07/20 13:39:08;;;;;;;8.68;2.75;;;;;;;;;;10068620;28;20470;-68
2022/07/20 13:44:04;;;;;;;5.68;2.55;;;;;;;;;;10064125;28;20130;-68
2022/07/20 13:49:03;;;;;;;4.93;2.40;;;;;;;;;;10061627;28;20087;-68
2022/07/20 13:53:59;;;;;;;5.38;2.60;;;;;;;;;;10048201;28;20066;-68
2022/07/20 13:58:55;;;;;;;5.65;2.65;;;;;;;;;;10078471;28;20572;-69
2022/07/20 14:03:52;;;;;;;5.35;2.20;;;;;;;;;;10079394;28;20518;-68
2022/07/20 14:08:48;;;;;;;7.35;2.75;;;;;;;;;;10043006;28;20079;-69
2022/07/20 14:13:45;;;;;;;3.47;2.15;;;;;;;;;;10045919;28;20075;-68
2022/07/20 14:18:41;;;;;;;6.72;2.67;;;;;;;;;;10078142;28;20098;-68
2022/07/20 14:23:38;;;;;;;4.32;2.63;;;;;;;;;;10072486;28;20043;-68
2022/07/20 14:28:34;;;;;;;4.90;2.28;;;;;;;;;;10077940;28;20074;-68
2022/07/20 14:33:30;;;;;;;7.82;2.83;;;;;;;;;;10053022;28;20039;-68
2022/07/20 14:38:27;;;;;;;7.60;2.58;;;;;;;;;;10076777;28;20055;-68
2022/07/20 14:43:23;;;;;;;8.10;2.63;;;;;;;;;;10049041;28;20524;-68
2022/07/20 14:48:19;;;;;;;4.30;2.50;;;;;;;;;;10076911;28;20134;-68
2022/07/20 14:53:16;;;;;;;17.23;4.57;;;;;;;;;;10048577;28;20051;-68
2022/07/20 14:58:14;;;;;;;10.13;5.70;;;;;;;;;;10076842;28;20047;-68
2022/07/20 15:03:10;;;;;;;17.63;7.30;;;;;;;;;;10040377;28;20474;-68
2022/07/20 15:08:07;;;;;;;12.45;6.55;;;;;;;;;;10076106;28;20107;-67
2022/07/20 15:13:03;;;;;;;14.20;7.38;;;;;;;;;;10077043;28;20528;-66
2022/07/20 15:18:00;;;;;;;14.93;7.55;;;;;;;;;;10073610;28;20098;-66
2022/07/20 15:22:56;;;;;;;18.67;9.95;;;;;;;;;;10038668;28;20106;-66
2022/07/20 15:27:52;;;;;;;14.65;9.30;;;;;;;;;;10076071;28;20087;-67
2022/07/20 15:32:49;;;;;;;13.27;9.40;;;;;;;;;;10036590;28;20056;-67
2022/07/20 15:37:45;;;;;;;16.02;9.30;;;;;;;;;;10059980;28;20051;-67
2022/07/20 15:42:42;;;;;;;15.77;8.85;;;;;;;;;;10036161;28;20098;-67
2022/07/20 15:47:38;;;;;;;21.80;9.20;;;;;;;;;;10036671;28;20574;-67
2022/07/20 15:52:34;;;;;;;17.40;9.55;;;;;;;;;;10036512;28;20569;-67
2022/07/20 15:57:31;;;;;;;13.60;8.75;;;;;;;;;;10065592;28;20055;-66
2022/07/20 16:02:27;;;;;;;18.75;11.77;;;;;;;;;;10074805;28;20572;-67
2022/07/20 16:07:25;;;;;;;16.10;11.07;;;;;;;;;;10064102;28;20543;-66
2022/07/20 16:12:22;;;;;;;17.27;10.10;;;;;;;;;;10058981;28;20040;-67
2022/07/20 16:17:18;;;;;;;19.83;12.43;;;;;;;;;;10062689;28;20050;-67
2022/07/20 16:22:14;;;;;;;16.10;12.80;;;;;;;;;;10055400;28;20051;-67
2022/07/20 16:27:11;;;;;;;17.60;13.30;;;;;;;;;;10061480;28;20051;-67
2022/07/20 16:32:07;;;;;;;19.75;11.98;;;;;;;;;;10052290;28;20067;-67
2022/07/20 16:37:04;;;;;;;18.17;11.75;;;;;;;;;;10061041;28;20047;-67
2022/07/20 16:42:01;;;;;;;19.50;11.82;;;;;;;;;;10044756;28;20477;-67
2022/07/20 16:46:58;;;;;;;19.98;11.90;;;;;;;;;;10059006;28;20047;-67
2022/07/20 16:51:56;;;;;;;16.67;12.20;;;;;;;;;;10047890;28;20558;-67
2022/07/20 16:56:52;;;;;;;19.17;12.15;;;;;;;;;;10065927;28;20070;-67
2022/07/20 17:01:49;;;;;;;17.00;11.30;;;;;;;;;;10081952;28;20543;-67
2022/07/20 17:06:45;;;;;;;17.15;11.10;;;;;;;;;;10060091;28;20129;-67
2022/07/20 17:11:41;;;;;;;17.10;12.32;;;;;;;;;;10042494;28;20081;-67
2022/07/20 17:16:38;;;;;;;18.63;12.10;;;;;;;;;;10064942;28;20063;-67
2022/07/20 17:21:34;;;;;;;18.10;12.38;;;;;;;;;;10080865;28;20039;-67
2022/07/20 17:26:30;;;;;;;15.35;11.18;;;;;;;;;;10068230;28;20067;-67
2022/07/20 17:31:26;;;;;;;18.83;12.82;;;;;;;;;;10069315;28;20131;-67
2022/07/20 17:36:23;;;;;;;19.70;11.73;;;;;;;;;;10061525;28;20059;-67
2022/07/20 17:41:20;;;;;;;17.48;13.32;;;;;;;;;;10060661;28;20152;-67
2022/07/20 17:46:16;;;;;;;18.60;13.90;;;;;;;;;;10060874;28;20078;-67
2022/07/20 17:51:12;;;;;;;16.85;13.35;;;;;;;;;;10057082;28;20052;-67
2022/07/20 17:56:08;;;;;;;18.20;13.52;;;;;;;;;;10059056;28;20075;-66
2022/07/20 18:01:05;;;;;;;19.77;13.52;;;;;;;;;;10047440;28;20047;-67
2022/07/20 18:06:01;;;;;;;18.90;13.18;;;;;;;;;;10048167;28;20510;-67
2022/07/20 18:10:58;;;;;;;18.90;13.70;;;;;;;;;;10039445;28;20071;-66
2022/07/20 18:15:54;;;;;;;19.63;14.00;;;;;;;;;;10041068;28;20055;-67
2022/07/20 18:20:51;;;;;;;18.20;13.60;;;;;;;;;;10039639;28;20056;-67
2022/07/20 18:25:47;;;;;;;32.92;15.10;;;;;;;;;;10055403;28;20114;-67
2022/07/20 18:30:44;;;;;;;24.42;15.32;;;;;;;;;;10078219;28;20079;-67
2022/07/20 18:35:41;;;;;;;22.63;15.70;;;;;;;;;;10057584;28;20497;-66
2022/07/20 18:40:38;;;;;;;24.52;15.90;;;;;;;;;;10063448;28;20043;-67
2022/07/20 18:50:59;;;;;;;20.15;13.68;;;;;;;;;;10057113;28;20502;-66
2022/07/20 18:55:56;;;;;;;20.70;13.73;;;;;;;;;;10055250;28;20039;-66
2022/07/20 19:00:52;;;;;;;17.77;13.15;;;;;;;;;;10044604;28;20071;-66
2022/07/20 19:05:49;;;;;;;16.83;13.05;;;;;;;;;;10053921;28;20102;-67
2022/07/20 19:10:46;;;;;;;17.77;13.77;;;;;;;;;;10039166;28;20047;-66
2022/07/20 19:15:43;;;;;;;22.90;13.82;;;;;;;;;;10044525;28;20048;-66
2022/07/20 19:20:39;;;;;;;19.42;13.25;;;;;;;;;;10037676;28;20050;-67
2022/07/20 19:25:36;;;;;;;21.23;11.90;;;;;;;;;;10051557;28;20047;-66
2022/07/20 19:30:35;;;;;;;17.55;12.25;;;;;;;;;;10075763;28;20087;-66
2022/07/20 19:35:32;;;;;;;17.67;12.07;;;;;;;;;;10058870;28;20066;-66
2022/07/20 19:40:28;;;;;;;23.95;14.32;;;;;;;;;;10075957;28;20047;-66
2022/07/20 19:45:25;;;;;;;23.35;13.00;;;;;;;;;;10054410;28;20043;-66
2022/07/20 19:50:21;;;;;;;21.45;13.82;;;;;;;;;;10067455;28;20126;-66
2022/07/20 19:55:19;;;;;;;24.55;13.77;;;;;;;;;;10047453;28;20122;-66
2022/07/20 20:00:15;;;;;;;22.10;12.40;;;;;;;;;;10062805;28;20135;-67
2022/07/20 20:05:11;;;;;;;26.10;14.05;;;;;;;;;;10046241;28;20087;-67
2022/07/20 20:10:08;;;;;;;22.17;14.35;;;;;;;;;;10049033;28;20495;-66
2022/07/20 20:15:05;;;;;;;25.23;12.82;;;;;;;;;;10046608;28;20070;-66
2022/07/20 20:20:08;;;;;;;23.75;14.05;;;;;;;;;;10039438;28;20058;-66
2022/07/20 20:25:05;;;;;;;22.10;13.02;;;;;;;;;;10044994;28;20051;-66
2022/07/20 20:30:02;;;;;;;23.90;14.05;;;;;;;;;;10074028;28;20047;-66
2022/07/20 20:34:58;;;;;;;21.15;12.52;;;;;;;;;;10054157;28;20098;-66
2022/07/20 20:39:55;;;;;;;25.88;13.63;;;;;;;;;;10073924;28;20208;-66
2022/07/20 20:44:51;;;;;;;24.55;13.75;;;;;;;;;;10048537;28;20477;-66
2022/07/20 20:49:47;;;;;;;16.10;10.85;;;;;;;;;;10065734;28;20123;-66
2022/07/20 20:54:43;;;;;;;25.75;13.95;;;;;;;;;;10042250;28;20047;-66
2022/07/20 20:59:40;;;;;;;18.40;11.07;;;;;;;;;;10056400;28;20426;-66
2022/07/20 21:04:36;;;;;;;23.23;11.82;;;;;;;;;;10041274;28;20047;-66
2022/07/20 21:09:32;;;;;;;24.10;12.40;;;;;;;;;;10047982;28;20075;-66
2022/07/20 21:14:29;;;;;;;20.63;12.75;;;;;;;;;;10040170;28;20172;-66
2022/07/20 21:19:30;;;;;;;23.98;12.77;;;;;;;;;;10040818;28;20413;-66
2022/07/20 21:24:26;;;;;;;19.43;12.03;;;;;;;;;;10039019;28;20472;-66
2022/07/20 21:29:23;;;;;;;24.85;13.88;;;;;;;;;;10041371;28;20059;-66
2022/07/20 21:34:19;;;;;;;17.65;11.23;;;;;;;;;;10041309;28;20063;-66
2022/07/20 21:39:15;;;;;;;24.48;13.65;;;;;;;;;;10079946;28;20086;-66
2022/07/20 21:44:12;;;;;;;19.63;12.82;;;;;;;;;;10071293;28;20059;-66
2022/07/20 21:49:08;;;;;;;24.02;12.80;;;;;;;;;;10079044;28;20414;-66
2022/07/20 21:54:04;;;;;;;17.77;11.23;;;;;;;;;;10066888;28;20506;-67
2022/07/20 21:59:01;;;;;;;18.35;11.82;;;;;;;;;;10079054;28;20561;-66
2022/07/20 22:03:57;;;;;;;19.35;10.90;;;;;;;;;;10050043;28;20131;-65
2022/07/20 22:08:54;;;;;;;19.25;11.13;;;;;;;;;;10072833;28;20050;-65
2022/07/20 22:13:51;;;;;;;20.98;10.68;;;;;;;;;;10040565;28;20514;-65
2022/07/20 22:18:48;;;;;;;17.83;9.98;;;;;;;;;;10062839;28;20134;-65
2022/07/20 22:23:44;;;;;;;17.60;10.80;;;;;;;;;;10039972;28;20053;-65
2022/07/20 22:28:41;;;;;;;20.15;11.23;;;;;;;;;;10062525;28;20788;-65
2022/07/20 22:33:37;;;;;;;15.82;10.38;;;;;;;;;;10039465;28;20048;-64
2022/07/20 22:38:33;;;;;;;12.55;9.45;;;;;;;;;;10075664;28;20564;-64
2022/07/20 22:43:29;;;;;;;16.33;9.10;;;;;;;;;;10078587;28;20537;-64
2022/07/20 22:48:26;;;;;;;19.55;10.57;;;;;;;;;;10054592;28;20044;-67
2022/07/20 22:53:22;;;;;;;18.05;10.13;;;;;;;;;;10038919;28;20055;-65
2022/07/20 22:58:19;;;;;;;16.30;9.93;;;;;;;;;;10040206;28;20044;-64
2022/07/20 23:03:15;;;;;;;18.75;9.70;;;;;;;;;;10038366;28;20122;-65
2022/07/20 23:08:12;;;;;;;14.98;9.43;;;;;;;;;;10072452;28;20062;-64
2022/07/20 23:13:08;;;;;;;14.60;8.70;;;;;;;;;;10047643;28;20091;-64
2022/07/20 23:18:04;;;;;;;34.75;9.95;;;;;;;;;;10068737;28;20501;-65
2022/07/20 23:23:01;;;;;;;137.70;16.70;;;;;;;;;;10038352;28;20091;-65
2022/07/20 23:27:57;;;;;;;15.98;7.85;;;;;;;;;;10051745;28;20501;-65
2022/07/20 23:32:53;;;;;;;12.27;8.02;;;;;;;;;;10037207;28;20118;-64
2022/07/20 23:37:50;;;;;;;12.43;8.30;;;;;;;;;;10038277;28;20506;-65
2022/07/20 23:42:47;;;;;;;10.82;6.97;;;;;;;;;;10037094;28;20039;-65
2022/07/20 23:47:44;;;;;;;12.25;6.43;;;;;;;;;;10067802;28;20456;-65
2022/07/20 23:52:40;;;;;;;12.45;6.65;;;;;;;;;;10075410;28;20114;-65
2022/07/20 23:57:50;;;;;;;14.07;7.18;;;;;;;;;;10066140;28;20047;-65
